sensor_id;sensor_type;location;lat;lon;timestamp;temperature;humidity
2439;DHT22;14509;47.992;7.848;2024-03-06T00:01:25;13.40;54.40
2439;DHT22;14509;47.992;7.848;2024-03-06T00:03:27;13.40;54.40
2439;DHT22;14509;47.992;7.848;2024-03-06T00:05:29;13.40;54.40
2439;DHT22;14509;47.992;7.848;2024-03-06T00:07:31;13.40;54.40
2439;DHT22;14509;47.992;7.848;2024-03-06T00:09:32;13.40;54.30
2439;DHT22;14509;47.992;7.848;2024-03-06T00:11:35;13.40;54.20
2439;DHT22;14509;47.992;7.848;2024-03-06T00:13:37;13.40;54.30
2439;DHT22;14509;47.992;7.848;2024-03-06T00:15:39;13.40;54.90
2439;DHT22;14509;47.992;7.848;2024-03-06T00:17:40;13.40;54.40
2439;DHT22;14509;47.992;7.848;2024-03-06T00:19:42;13.40;54.50
2439;DHT22;14509;47.992;7.848;2024-03-06T00:21:45;13.40;54.50
2439;DHT22;14509;47.992;7.848;2024-03-06T00:23:46;13.50;54.60
2439;DHT22;14509;47.992;7.848;2024-03-06T00:25:48;13.40;54.50
2439;DHT22;14509;47.992;7.848;2024-03-06T00:27:51;13.50;54.70
2439;DHT22;14509;47.992;7.848;2024-03-06T00:29:54;13.50;54.70
2439;DHT22;14509;47.992;7.848;2024-03-06T00:31:56;13.50;54.70
2439;DHT22;14509;47.992;7.848;2024-03-06T00:33:58;13.50;54.70
2439;DHT22;14509;47.992;7.848;2024-03-06T00:35:59;13.50;54.60
2439;DHT22;14509;47.992;7.848;2024-03-06T00:38:00;13.50;54.70
2439;DHT22;14509;47.992;7.848;2024-03-06T00:40:03;13.50;54.70
2439;DHT22;14509;47.992;7.848;2024-03-06T00:42:04;13.50;54.60
2439;DHT22;14509;47.992;7.848;2024-03-06T00:44:07;13.50;54.60
2439;DHT22;14509;47.992;7.848;2024-03-06T00:46:08;13.50;54.60
2439;DHT22;14509;47.992;7.848;2024-03-06T00:48:10;13.50;54.60
2439;DHT22;14509;47.992;7.848;2024-03-06T00:50:12;13.50;54.50
2439;DHT22;14509;47.992;7.848;2024-03-06T00:52:13;13.50;54.50
2439;DHT22;14509;47.992;7.848;2024-03-06T00:54:15;13.50;54.50
2439;DHT22;14509;47.992;7.848;2024-03-06T00:56:16;13.50;54.40
2439;DHT22;14509;47.992;7.848;2024-03-06T00:58:18;13.50;54.20
2439;DHT22;14509;47.992;7.848;2024-03-06T01:00:21;13.50;54.10
2439;DHT22;14509;47.992;7.848;2024-03-06T01:02:23;13.40;53.90
2439;DHT22;14509;47.992;7.848;2024-03-06T01:04:25;13.40;53.90
2439;DHT22;14509;47.992;7.848;2024-03-06T01:06:28;13.30;53.90
2439;DHT22;14509;47.992;7.848;2024-03-06T01:08:29;13.30;53.90
2439;DHT22;14509;47.992;7.848;2024-03-06T01:10:32;13.30;53.80
2439;DHT22;14509;47.992;7.848;2024-03-06T01:12:34;13.30;53.80
2439;DHT22;14509;47.992;7.848;2024-03-06T01:14:36;13.20;53.80
2439;DHT22;14509;47.992;7.848;2024-03-06T01:16:39;13.20;53.80
2439;DHT22;14509;47.992;7.848;2024-03-06T01:18:40;13.30;53.90
2439;DHT22;14509;47.992;7.848;2024-03-06T01:20:41;13.20;53.80
2439;DHT22;14509;47.992;7.848;2024-03-06T01:22:43;13.20;54.00
2439;DHT22;14509;47.992;7.848;2024-03-06T01:24:44;13.20;54.00
2439;DHT22;14509;47.992;7.848;2024-03-06T01:26:49;13.20;54.20
2439;DHT22;14509;47.992;7.848;2024-03-06T01:28:51;13.20;54.30
2439;DHT22;14509;47.992;7.848;2024-03-06T01:30:53;13.20;54.50
2439;DHT22;14509;47.992;7.848;2024-03-06T01:32:56;13.20;54.50
2439;DHT22;14509;47.992;7.848;2024-03-06T01:34:58;13.30;54.60
2439;DHT22;14509;47.992;7.848;2024-03-06T01:37:00;13.30;54.60
2439;DHT22;14509;47.992;7.848;2024-03-06T01:39:01;13.30;54.60
2439;DHT22;14509;47.992;7.848;2024-03-06T01:41:04;13.30;54.80
2439;DHT22;14509;47.992;7.848;2024-03-06T01:43:06;13.30;54.70
2439;DHT22;14509;47.992;7.848;2024-03-06T01:45:08;13.30;54.70
2439;DHT22;14509;47.992;7.848;2024-03-06T01:47:10;13.30;54.80
2439;DHT22;14509;47.992;7.848;2024-03-06T01:49:13;13.40;54.90
2439;DHT22;14509;47.992;7.848;2024-03-06T01:51:16;13.30;54.80
2439;DHT22;14509;47.992;7.848;2024-03-06T01:53:18;13.30;54.70
2439;DHT22;14509;47.992;7.848;2024-03-06T01:55:19;13.30;54.60
2439;DHT22;14509;47.992;7.848;2024-03-06T01:57:23;13.30;54.50
2439;DHT22;14509;47.992;7.848;2024-03-06T01:59:25;13.30;54.60
2439;DHT22;14509;47.992;7.848;2024-03-06T02:01:28;13.30;54.60
2439;DHT22;14509;47.992;7.848;2024-03-06T02:03:31;13.30;54.70
2439;DHT22;14509;47.992;7.848;2024-03-06T02:05:35;13.30;54.70
2439;DHT22;14509;47.992;7.848;2024-03-06T02:07:38;13.30;54.80
2439;DHT22;14509;47.992;7.848;2024-03-06T02:09:41;13.30;54.80
2439;DHT22;14509;47.992;7.848;2024-03-06T02:11:44;13.50;55.00
2439;DHT22;14509;47.992;7.848;2024-03-06T02:13:46;13.30;54.90
2439;DHT22;14509;47.992;7.848;2024-03-06T02:15:48;13.30;54.80
2439;DHT22;14509;47.992;7.848;2024-03-06T02:17:50;13.40;54.80
2439;DHT22;14509;47.992;7.848;2024-03-06T02:19:52;13.30;54.70
2439;DHT22;14509;47.992;7.848;2024-03-06T02:21:56;13.40;54.80
2439;DHT22;14509;47.992;7.848;2024-03-06T02:23:57;13.40;54.70
2439;DHT22;14509;47.992;7.848;2024-03-06T02:25:59;13.40;54.50
2439;DHT22;14509;47.992;7.848;2024-03-06T02:28:03;13.40;54.50
2439;DHT22;14509;47.992;7.848;2024-03-06T02:30:05;13.40;54.40
2439;DHT22;14509;47.992;7.848;2024-03-06T02:32:07;13.40;54.40
2439;DHT22;14509;47.992;7.848;2024-03-06T02:34:09;13.40;54.20
2439;DHT22;14509;47.992;7.848;2024-03-06T02:36:10;13.40;54.10
2439;DHT22;14509;47.992;7.848;2024-03-06T02:38:14;13.50;54.20
2439;DHT22;14509;47.992;7.848;2024-03-06T02:40:16;13.40;54.00
2439;DHT22;14509;47.992;7.848;2024-03-06T02:42:17;13.40;54.00
2439;DHT22;14509;47.992;7.848;2024-03-06T02:44:19;13.40;54.10
2439;DHT22;14509;47.992;7.848;2024-03-06T02:46:21;13.40;54.30
2439;DHT22;14509;47.992;7.848;2024-03-06T02:48:22;13.30;54.30
2439;DHT22;14509;47.992;7.848;2024-03-06T02:50:24;13.20;54.30
2439;DHT22;14509;47.992;7.848;2024-03-06T02:52:25;13.20;54.60
2439;DHT22;14509;47.992;7.848;2024-03-06T02:54:28;13.00;54.70
2439;DHT22;14509;47.992;7.848;2024-03-06T02:56:30;12.90;54.80
2439;DHT22;14509;47.992;7.848;2024-03-06T02:58:31;12.90;54.90
2439;DHT22;14509;47.992;7.848;2024-03-06T03:00:33;12.80;55.00
2439;DHT22;14509;47.992;7.848;2024-03-06T03:02:34;12.70;55.00
2439;DHT22;14509;47.992;7.848;2024-03-06T03:04:36;12.90;55.50
2439;DHT22;14509;47.992;7.848;2024-03-06T03:06:38;12.40;55.50
2439;DHT22;14509;47.992;7.848;2024-03-06T03:08:40;12.50;55.70
2439;DHT22;14509;47.992;7.848;2024-03-06T03:10:43;12.40;56.00
2439;DHT22;14509;47.992;7.848;2024-03-06T03:12:45;12.30;56.10
2439;DHT22;14509;47.992;7.848;2024-03-06T03:14:47;12.40;56.40
2439;DHT22;14509;47.992;7.848;2024-03-06T03:16:49;12.40;57.20
2439;DHT22;14509;47.992;7.848;2024-03-06T03:18:51;12.40;56.70
2439;DHT22;14509;47.992;7.848;2024-03-06T03:20:52;12.40;56.80
2439;DHT22;14509;47.992;7.848;2024-03-06T03:22:53;12.40;56.90
2439;DHT22;14509;47.992;7.848;2024-03-06T03:24:55;12.50;57.10
2439;DHT22;14509;47.992;7.848;2024-03-06T03:26:58;12.50;56.60
2439;DHT22;14509;47.992;7.848;2024-03-06T03:29:01;12.60;57.10
2439;DHT22;14509;47.992;7.848;2024-03-06T03:31:03;12.60;57.00
2439;DHT22;14509;47.992;7.848;2024-03-06T03:33:05;12.60;56.80
2439;DHT22;14509;47.992;7.848;2024-03-06T03:35:08;12.60;56.80
2439;DHT22;14509;47.992;7.848;2024-03-06T03:37:10;12.70;56.80
2439;DHT22;14509;47.992;7.848;2024-03-06T03:39:13;12.60;56.70
2439;DHT22;14509;47.992;7.848;2024-03-06T03:41:16;12.60;56.70
2439;DHT22;14509;47.992;7.848;2024-03-06T03:43:19;12.60;56.70
2439;DHT22;14509;47.992;7.848;2024-03-06T03:45:21;12.60;56.80
2439;DHT22;14509;47.992;7.848;2024-03-06T03:47:23;12.60;56.80
2439;DHT22;14509;47.992;7.848;2024-03-06T03:49:25;12.60;56.70
2439;DHT22;14509;47.992;7.848;2024-03-06T03:51:26;12.60;56.70
2439;DHT22;14509;47.992;7.848;2024-03-06T03:53:28;12.60;56.70
2439;DHT22;14509;47.992;7.848;2024-03-06T03:55:30;12.60;56.80
2439;DHT22;14509;47.992;7.848;2024-03-06T03:57:32;12.70;56.90
2439;DHT22;14509;47.992;7.848;2024-03-06T03:59:34;12.70;56.80
2439;DHT22;14509;47.992;7.848;2024-03-06T04:01:37;12.70;56.90
2439;DHT22;14509;47.992;7.848;2024-03-06T04:03:39;12.70;56.90
2439;DHT22;14509;47.992;7.848;2024-03-06T04:05:43;12.70;56.80
2439;DHT22;14509;47.992;7.848;2024-03-06T04:07:44;12.90;57.00
2439;DHT22;14509;47.992;7.848;2024-03-06T04:09:46;12.80;56.90
2439;DHT22;14509;47.992;7.848;2024-03-06T04:11:48;12.80;56.80
2439;DHT22;14509;47.992;7.848;2024-03-06T04:13:50;12.80;56.70
2439;DHT22;14509;47.992;7.848;2024-03-06T04:15:53;12.80;56.60
2439;DHT22;14509;47.992;7.848;2024-03-06T04:17:55;12.80;56.50
2439;DHT22;14509;47.992;7.848;2024-03-06T04:19:56;12.80;56.30
2439;DHT22;14509;47.992;7.848;2024-03-06T04:21:58;12.80;56.00
2439;DHT22;14509;47.992;7.848;2024-03-06T04:24:00;12.70;55.50
2439;DHT22;14509;47.992;7.848;2024-03-06T04:26:02;13.10;55.70
2439;DHT22;14509;47.992;7.848;2024-03-06T04:28:04;12.80;55.30
2439;DHT22;14509;47.992;7.848;2024-03-06T04:30:08;12.70;54.90
2439;DHT22;14509;47.992;7.848;2024-03-06T04:32:12;12.60;54.40
2439;DHT22;14509;47.992;7.848;2024-03-06T04:34:14;12.60;54.20
2439;DHT22;14509;47.992;7.848;2024-03-06T04:36:15;12.60;54.00
2439;DHT22;14509;47.992;7.848;2024-03-06T04:38:17;12.50;53.90
2439;DHT22;14509;47.992;7.848;2024-03-06T04:40:18;12.50;54.00
2439;DHT22;14509;47.992;7.848;2024-03-06T04:42:22;12.50;54.00
2439;DHT22;14509;47.992;7.848;2024-03-06T04:44:24;12.50;54.10
2439;DHT22;14509;47.992;7.848;2024-03-06T04:46:26;12.50;54.10
2439;DHT22;14509;47.992;7.848;2024-03-06T04:48:29;12.50;54.00
2439;DHT22;14509;47.992;7.848;2024-03-06T04:50:31;12.50;53.90
2439;DHT22;14509;47.992;7.848;2024-03-06T04:52:34;12.50;53.80
2439;DHT22;14509;47.992;7.848;2024-03-06T04:54:36;12.40;54.40
2439;DHT22;14509;47.992;7.848;2024-03-06T04:56:38;12.50;54.00
2439;DHT22;14509;47.992;7.848;2024-03-06T04:58:40;12.40;53.90
2439;DHT22;14509;47.992;7.848;2024-03-06T05:00:42;12.50;54.00
2439;DHT22;14509;47.992;7.848;2024-03-06T05:02:44;12.40;53.90
2439;DHT22;14509;47.992;7.848;2024-03-06T05:04:46;13.40;54.70
2439;DHT22;14509;47.992;7.848;2024-03-06T05:06:48;12.50;53.80
2439;DHT22;14509;47.992;7.848;2024-03-06T05:08:50;12.90;54.10
2439;DHT22;14509;47.992;7.848;2024-03-06T05:10:52;12.40;53.50
2439;DHT22;14509;47.992;7.848;2024-03-06T05:12:54;12.50;53.50
2439;DHT22;14509;47.992;7.848;2024-03-06T05:14:55;12.50;53.40
2439;DHT22;14509;47.992;7.848;2024-03-06T05:16:56;12.50;53.20
2439;DHT22;14509;47.992;7.848;2024-03-06T05:18:58;12.80;53.20
2439;DHT22;14509;47.992;7.848;2024-03-06T05:21:01;12.50;52.60
2439;DHT22;14509;47.992;7.848;2024-03-06T05:23:04;12.40;52.40
2439;DHT22;14509;47.992;7.848;2024-03-06T05:25:06;12.40;52.50
2439;DHT22;14509;47.992;7.848;2024-03-06T05:27:09;12.40;52.60
2439;DHT22;14509;47.992;7.848;2024-03-06T05:29:13;12.40;52.60
2439;DHT22;14509;47.992;7.848;2024-03-06T05:31:16;12.40;52.60
2439;DHT22;14509;47.992;7.848;2024-03-06T05:33:19;12.30;52.60
2439;DHT22;14509;47.992;7.848;2024-03-06T05:35:20;12.40;52.50
2439;DHT22;14509;47.992;7.848;2024-03-06T05:37:23;12.30;52.40
2439;DHT22;14509;47.992;7.848;2024-03-06T05:39:25;12.30;52.60
2439;DHT22;14509;47.992;7.848;2024-03-06T05:41:26;12.30;52.70
2439;DHT22;14509;47.992;7.848;2024-03-06T05:43:27;12.30;52.70
2439;DHT22;14509;47.992;7.848;2024-03-06T05:45:30;12.30;52.80
2439;DHT22;14509;47.992;7.848;2024-03-06T05:47:32;12.20;52.70
2439;DHT22;14509;47.992;7.848;2024-03-06T05:49:32;12.30;53.00
2439;DHT22;14509;47.992;7.848;2024-03-06T05:51:35;12.20;53.00
2439;DHT22;14509;47.992;7.848;2024-03-06T05:53:37;12.20;53.00
2439;DHT22;14509;47.992;7.848;2024-03-06T05:55:41;12.20;53.20
2439;DHT22;14509;47.992;7.848;2024-03-06T05:57:42;12.20;53.10
2439;DHT22;14509;47.992;7.848;2024-03-06T05:59:46;12.20;53.10
2439;DHT22;14509;47.992;7.848;2024-03-06T06:01:48;12.20;53.20
2439;DHT22;14509;47.992;7.848;2024-03-06T06:03:49;12.20;53.20
2439;DHT22;14509;47.992;7.848;2024-03-06T06:05:51;12.20;53.10
2439;DHT22;14509;47.992;7.848;2024-03-06T06:07:55;12.20;53.10
2439;DHT22;14509;47.992;7.848;2024-03-06T06:09:59;12.20;53.10
2439;DHT22;14509;47.992;7.848;2024-03-06T06:12:00;12.20;53.00
2439;DHT22;14509;47.992;7.848;2024-03-06T06:14:03;12.20;53.00
2439;DHT22;14509;47.992;7.848;2024-03-06T06:16:06;12.30;53.10
2439;DHT22;14509;47.992;7.848;2024-03-06T06:18:08;12.20;52.90
2439;DHT22;14509;47.992;7.848;2024-03-06T06:20:10;12.20;52.80
2439;DHT22;14509;47.992;7.848;2024-03-06T06:22:15;12.30;52.90
2439;DHT22;14509;47.992;7.848;2024-03-06T06:24:17;12.30;53.10
2439;DHT22;14509;47.992;7.848;2024-03-06T06:26:20;12.30;53.10
2439;DHT22;14509;47.992;7.848;2024-03-06T06:28:22;12.30;53.20
2439;DHT22;14509;47.992;7.848;2024-03-06T06:30:24;13.00;53.80
2439;DHT22;14509;47.992;7.848;2024-03-06T06:32:26;12.30;53.10
2439;DHT22;14509;47.992;7.848;2024-03-06T06:34:28;12.60;53.50
2439;DHT22;14509;47.992;7.848;2024-03-06T06:36:30;12.20;53.10
2439;DHT22;14509;47.992;7.848;2024-03-06T06:38:31;12.20;53.00
2439;DHT22;14509;47.992;7.848;2024-03-06T06:40:33;11.80;52.60
2439;DHT22;14509;47.992;7.848;2024-03-06T06:42:38;12.60;53.40
2439;DHT22;14509;47.992;7.848;2024-03-06T06:44:45;12.00;53.00
2439;DHT22;14509;47.992;7.848;2024-03-06T06:46:47;12.10;53.30
2439;DHT22;14509;47.992;7.848;2024-03-06T06:48:48;12.00;53.40
2439;DHT22;14509;47.992;7.848;2024-03-06T06:50:50;12.00;53.60
2439;DHT22;14509;47.992;7.848;2024-03-06T06:52:51;11.90;53.70
2439;DHT22;14509;47.992;7.848;2024-03-06T06:54:53;11.90;53.80
2439;DHT22;14509;47.992;7.848;2024-03-06T06:56:54;11.90;54.00
2439;DHT22;14509;47.992;7.848;2024-03-06T06:58:57;11.90;54.10
2439;DHT22;14509;47.992;7.848;2024-03-06T07:01:00;11.90;54.20
2439;DHT22;14509;47.992;7.848;2024-03-06T07:03:02;11.90;54.30
2439;DHT22;14509;47.992;7.848;2024-03-06T07:05:09;11.90;54.70
2439;DHT22;14509;47.992;7.848;2024-03-06T07:07:11;11.90;54.50
2439;DHT22;14509;47.992;7.848;2024-03-06T07:09:14;11.90;54.70
2439;DHT22;14509;47.992;7.848;2024-03-06T07:11:17;11.90;54.80
2439;DHT22;14509;47.992;7.848;2024-03-06T07:13:18;12.60;55.80
2439;DHT22;14509;47.992;7.848;2024-03-06T07:15:21;11.90;55.20
2439;DHT22;14509;47.992;7.848;2024-03-06T07:17:23;11.90;54.70
2439;DHT22;14509;47.992;7.848;2024-03-06T07:19:25;11.90;54.80
2439;DHT22;14509;47.992;7.848;2024-03-06T07:21:27;11.90;54.90
2439;DHT22;14509;47.992;7.848;2024-03-06T07:23:29;11.90;54.90
2439;DHT22;14509;47.992;7.848;2024-03-06T07:25:31;11.90;54.70
2439;DHT22;14509;47.992;7.848;2024-03-06T07:27:33;11.90;54.60
2439;DHT22;14509;47.992;7.848;2024-03-06T07:29:34;11.80;54.50
2439;DHT22;14509;47.992;7.848;2024-03-06T07:31:37;11.80;54.60
2439;DHT22;14509;47.992;7.848;2024-03-06T07:33:39;11.80;54.70
2439;DHT22;14509;47.992;7.848;2024-03-06T07:35:40;11.80;54.70
2439;DHT22;14509;47.992;7.848;2024-03-06T07:37:42;11.90;54.80
2439;DHT22;14509;47.992;7.848;2024-03-06T07:39:45;11.70;54.60
2439;DHT22;14509;47.992;7.848;2024-03-06T07:41:47;11.70;54.70
2439;DHT22;14509;47.992;7.848;2024-03-06T07:43:49;11.70;54.60
2439;DHT22;14509;47.992;7.848;2024-03-06T07:45:51;11.70;54.60
2439;DHT22;14509;47.992;7.848;2024-03-06T07:47:54;11.60;54.50
2439;DHT22;14509;47.992;7.848;2024-03-06T07:49:56;11.60;54.50
2439;DHT22;14509;47.992;7.848;2024-03-06T07:52:01;11.70;54.60
2439;DHT22;14509;47.992;7.848;2024-03-06T07:54:02;11.70;54.70
2439;DHT22;14509;47.992;7.848;2024-03-06T07:56:05;11.70;54.90
2439;DHT22;14509;47.992;7.848;2024-03-06T07:58:07;11.80;55.00
2439;DHT22;14509;47.992;7.848;2024-03-06T08:00:10;11.80;54.90
2439;DHT22;14509;47.992;7.848;2024-03-06T08:02:15;11.90;54.70
2439;DHT22;14509;47.992;7.848;2024-03-06T08:04:19;11.90;54.40
2439;DHT22;14509;47.992;7.848;2024-03-06T08:06:21;11.90;54.30
2439;DHT22;14509;47.992;7.848;2024-03-06T08:08:23;11.90;54.30
2439;DHT22;14509;47.992;7.848;2024-03-06T08:10:25;12.80;55.00
2439;DHT22;14509;47.992;7.848;2024-03-06T08:12:27;12.00;54.20
2439;DHT22;14509;47.992;7.848;2024-03-06T08:14:28;12.00;54.10
2439;DHT22;14509;47.992;7.848;2024-03-06T08:16:30;12.10;54.10
2439;DHT22;14509;47.992;7.848;2024-03-06T08:18:34;12.10;54.50
2439;DHT22;14509;47.992;7.848;2024-03-06T08:20:37;12.10;53.90
2439;DHT22;14509;47.992;7.848;2024-03-06T08:22:42;12.80;54.20
2439;DHT22;14509;47.992;7.848;2024-03-06T08:24:44;12.20;53.70
2439;DHT22;14509;47.992;7.848;2024-03-06T08:26:46;12.20;53.50
2439;DHT22;14509;47.992;7.848;2024-03-06T08:28:49;12.20;53.20
2439;DHT22;14509;47.992;7.848;2024-03-06T08:30:52;13.20;54.10
2439;DHT22;14509;47.992;7.848;2024-03-06T08:32:54;12.40;53.50
2439;DHT22;14509;47.992;7.848;2024-03-06T08:34:55;12.50;53.30
2439;DHT22;14509;47.992;7.848;2024-03-06T08:36:58;12.50;53.10
2439;DHT22;14509;47.992;7.848;2024-03-06T08:39:00;12.60;53.00
2439;DHT22;14509;47.992;7.848;2024-03-06T08:41:05;13.10;53.20
2439;DHT22;14509;47.992;7.848;2024-03-06T08:43:07;12.70;52.80
2439;DHT22;14509;47.992;7.848;2024-03-06T08:45:10;12.70;52.80
2439;DHT22;14509;47.992;7.848;2024-03-06T08:47:12;12.80;52.80
2439;DHT22;14509;47.992;7.848;2024-03-06T08:49:13;12.80;52.70
2439;DHT22;14509;47.992;7.848;2024-03-06T08:51:15;12.80;52.50
2439;DHT22;14509;47.992;7.848;2024-03-06T08:53:20;13.00;52.40
2439;DHT22;14509;47.992;7.848;2024-03-06T08:55:22;12.90;52.10
2439;DHT22;14509;47.992;7.848;2024-03-06T08:57:24;13.00;52.10
2439;DHT22;14509;47.992;7.848;2024-03-06T08:59:27;13.00;52.10
2439;DHT22;14509;47.992;7.848;2024-03-06T09:01:28;13.10;52.70
2439;DHT22;14509;47.992;7.848;2024-03-06T09:03:30;13.10;52.00
2439;DHT22;14509;47.992;7.848;2024-03-06T09:05:33;13.20;52.10
2439;DHT22;14509;47.992;7.848;2024-03-06T09:07:35;13.30;52.00
2439;DHT22;14509;47.992;7.848;2024-03-06T09:09:40;14.10;52.50
2439;DHT22;14509;47.992;7.848;2024-03-06T09:11:42;13.40;51.60
2439;DHT22;14509;47.992;7.848;2024-03-06T09:13:44;13.40;51.50
2439;DHT22;14509;47.992;7.848;2024-03-06T09:15:46;14.30;52.20
2439;DHT22;14509;47.992;7.848;2024-03-06T09:17:48;13.50;51.90
2439;DHT22;14509;47.992;7.848;2024-03-06T09:19:50;13.60;52.00
2439;DHT22;14509;47.992;7.848;2024-03-06T09:21:51;13.80;51.90
2439;DHT22;14509;47.992;7.848;2024-03-06T09:23:53;13.90;51.60
2439;DHT22;14509;47.992;7.848;2024-03-06T09:25:57;14.00;51.10
2439;DHT22;14509;47.992;7.848;2024-03-06T09:27:58;14.30;51.00
2439;DHT22;14509;47.992;7.848;2024-03-06T09:30:06;14.30;51.00
2439;DHT22;14509;47.992;7.848;2024-03-06T09:32:09;14.50;50.60
2439;DHT22;14509;47.992;7.848;2024-03-06T09:34:13;14.70;50.30
2439;DHT22;14509;47.992;7.848;2024-03-06T09:36:15;14.80;50.00
2439;DHT22;14509;47.992;7.848;2024-03-06T09:38:17;15.00;49.50
2439;DHT22;14509;47.992;7.848;2024-03-06T09:40:24;15.00;49.10
2439;DHT22;14509;47.992;7.848;2024-03-06T09:42:27;15.10;48.60
2439;DHT22;14509;47.992;7.848;2024-03-06T09:44:30;15.20;48.80
2439;DHT22;14509;47.992;7.848;2024-03-06T09:46:32;15.30;48.70
2439;DHT22;14509;47.992;7.848;2024-03-06T09:48:35;15.40;48.20
2439;DHT22;14509;47.992;7.848;2024-03-06T09:50:40;15.50;48.00
2439;DHT22;14509;47.992;7.848;2024-03-06T09:52:46;15.90;48.40
2439;DHT22;14509;47.992;7.848;2024-03-06T09:54:50;15.60;48.10
2439;DHT22;14509;47.992;7.848;2024-03-06T09:56:52;15.60;47.30
2439;DHT22;14509;47.992;7.848;2024-03-06T09:58:57;15.60;47.20
2439;DHT22;14509;47.992;7.848;2024-03-06T10:01:00;15.70;47.40
2439;DHT22;14509;47.992;7.848;2024-03-06T10:03:04;15.80;47.20
2439;DHT22;14509;47.992;7.848;2024-03-06T10:05:20;15.80;47.20
2439;DHT22;14509;47.992;7.848;2024-03-06T10:07:22;15.90;47.60
2439;DHT22;14509;47.992;7.848;2024-03-06T10:09:25;16.00;47.10
2439;DHT22;14509;47.992;7.848;2024-03-06T10:11:27;16.10;47.20
2439;DHT22;14509;47.992;7.848;2024-03-06T10:13:29;16.10;47.00
2439;DHT22;14509;47.992;7.848;2024-03-06T10:15:34;16.20;46.70
2439;DHT22;14509;47.992;7.848;2024-03-06T10:17:38;16.30;46.60
2439;DHT22;14509;47.992;7.848;2024-03-06T10:19:39;16.40;46.70
2439;DHT22;14509;47.992;7.848;2024-03-06T10:21:40;17.00;47.20
2439;DHT22;14509;47.992;7.848;2024-03-06T10:23:47;16.50;46.60
2439;DHT22;14509;47.992;7.848;2024-03-06T10:25:50;17.10;46.80
2439;DHT22;14509;47.992;7.848;2024-03-06T10:28:11;16.70;46.20
2439;DHT22;14509;47.992;7.848;2024-03-06T10:30:13;16.80;46.10
2439;DHT22;14509;47.992;7.848;2024-03-06T10:32:17;16.90;46.10
2439;DHT22;14509;47.992;7.848;2024-03-06T10:34:22;17.00;45.80
2439;DHT22;14509;47.992;7.848;2024-03-06T10:36:26;17.60;45.10
2439;DHT22;14509;47.992;7.848;2024-03-06T10:38:31;17.40;44.50
2439;DHT22;14509;47.992;7.848;2024-03-06T10:40:36;18.40;45.60
2439;DHT22;14509;47.992;7.848;2024-03-06T10:42:38;17.60;44.30
2439;DHT22;14509;47.992;7.848;2024-03-06T10:44:48;17.70;43.40
2439;DHT22;14509;47.992;7.848;2024-03-06T10:46:55;17.80;43.50
2439;DHT22;14509;47.992;7.848;2024-03-06T10:49:01;17.90;42.00
2439;DHT22;14509;47.992;7.848;2024-03-06T10:51:05;17.90;40.80
2439;DHT22;14509;47.992;7.848;2024-03-06T10:53:09;18.00;41.60
2439;DHT22;14509;47.992;7.848;2024-03-06T10:55:12;18.00;41.00
2439;DHT22;14509;47.992;7.848;2024-03-06T10:57:15;18.00;40.40
2439;DHT22;14509;47.992;7.848;2024-03-06T10:59:20;18.00;39.90
2439;DHT22;14509;47.992;7.848;2024-03-06T11:01:23;18.00;40.00
2439;DHT22;14509;47.992;7.848;2024-03-06T11:03:27;17.90;40.40
2439;DHT22;14509;47.992;7.848;2024-03-06T11:05:32;17.90;39.30
2439;DHT22;14509;47.992;7.848;2024-03-06T11:07:35;17.80;39.50
2439;DHT22;14509;47.992;7.848;2024-03-06T11:09:37;17.80;39.40
2439;DHT22;14509;47.992;7.848;2024-03-06T11:11:47;17.70;40.00
2439;DHT22;14509;47.992;7.848;2024-03-06T11:13:50;18.70;41.70
2439;DHT22;14509;47.992;7.848;2024-03-06T11:15:52;17.70;40.80
2439;DHT22;14509;47.992;7.848;2024-03-06T11:17:58;17.70;39.80
2439;DHT22;14509;47.992;7.848;2024-03-06T11:20:24;17.70;39.90
2439;DHT22;14509;47.992;7.848;2024-03-06T11:28:03;17.70;40.90
2439;DHT22;14509;47.992;7.848;2024-03-06T11:30:09;17.70;41.00
2439;DHT22;14509;47.992;7.848;2024-03-06T11:32:14;17.70;41.00
2439;DHT22;14509;47.992;7.848;2024-03-06T11:34:16;17.90;41.00
2439;DHT22;14509;47.992;7.848;2024-03-06T11:36:19;17.90;40.80
2439;DHT22;14509;47.992;7.848;2024-03-06T11:38:21;17.90;40.70
2439;DHT22;14509;47.992;7.848;2024-03-06T11:40:26;17.90;39.80
2439;DHT22;14509;47.992;7.848;2024-03-06T11:42:33;17.90;40.10
2439;DHT22;14509;47.992;7.848;2024-03-06T11:44:36;18.00;39.90
2439;DHT22;14509;47.992;7.848;2024-03-06T11:46:42;18.20;39.80
2439;DHT22;14509;47.992;7.848;2024-03-06T11:48:51;18.30;39.40
2439;DHT22;14509;47.992;7.848;2024-03-06T11:50:52;18.50;39.00
2439;DHT22;14509;47.992;7.848;2024-03-06T11:52:54;18.60;38.90
2439;DHT22;14509;47.992;7.848;2024-03-06T11:54:56;18.70;38.60
2439;DHT22;14509;47.992;7.848;2024-03-06T11:57:00;18.80;38.40
2439;DHT22;14509;47.992;7.848;2024-03-06T11:59:03;18.90;38.90
2439;DHT22;14509;47.992;7.848;2024-03-06T12:01:07;18.90;38.30
2439;DHT22;14509;47.992;7.848;2024-03-06T12:03:09;19.00;37.70
2439;DHT22;14509;47.992;7.848;2024-03-06T12:05:11;19.00;37.60
2439;DHT22;14509;47.992;7.848;2024-03-06T12:07:13;19.00;36.70
2439;DHT22;14509;47.992;7.848;2024-03-06T12:09:16;19.00;36.60
2439;DHT22;14509;47.992;7.848;2024-03-06T12:11:18;19.00;36.40
2439;DHT22;14509;47.992;7.848;2024-03-06T12:13:23;19.10;35.70
2439;DHT22;14509;47.992;7.848;2024-03-06T12:15:25;19.00;35.80
2439;DHT22;14509;47.992;7.848;2024-03-06T12:17:27;18.80;35.20
2439;DHT22;14509;47.992;7.848;2024-03-06T12:19:32;18.90;35.80
2439;DHT22;14509;47.992;7.848;2024-03-06T12:21:34;18.70;35.90
2439;DHT22;14509;47.992;7.848;2024-03-06T12:23:38;18.50;35.90
2439;DHT22;14509;47.992;7.848;2024-03-06T12:25:40;18.40;36.20
2439;DHT22;14509;47.992;7.848;2024-03-06T12:27:42;19.10;37.40
2439;DHT22;14509;47.992;7.848;2024-03-06T12:29:45;18.90;37.60
2439;DHT22;14509;47.992;7.848;2024-03-06T12:31:47;18.80;37.30
2439;DHT22;14509;47.992;7.848;2024-03-06T12:33:56;19.00;36.50
2439;DHT22;14509;47.992;7.848;2024-03-06T12:36:03;19.40;37.00
2439;DHT22;14509;47.992;7.848;2024-03-06T12:38:12;19.50;36.50
2439;DHT22;14509;47.992;7.848;2024-03-06T12:40:14;19.70;36.10
2439;DHT22;14509;47.992;7.848;2024-03-06T12:42:16;19.90;36.10
2439;DHT22;14509;47.992;7.848;2024-03-06T12:44:19;20.20;35.30
2439;DHT22;14509;47.992;7.848;2024-03-06T12:46:23;20.40;35.10
2439;DHT22;14509;47.992;7.848;2024-03-06T12:48:27;20.50;34.10
2439;DHT22;14509;47.992;7.848;2024-03-06T12:50:31;20.60;33.20
2439;DHT22;14509;47.992;7.848;2024-03-06T12:52:33;20.50;33.30
2439;DHT22;14509;47.992;7.848;2024-03-06T12:54:34;20.30;33.50
2439;DHT22;14509;47.992;7.848;2024-03-06T12:56:36;20.20;34.20
2439;DHT22;14509;47.992;7.848;2024-03-06T12:58:38;20.10;34.60
2439;DHT22;14509;47.992;7.848;2024-03-06T13:00:40;20.10;34.90
2439;DHT22;14509;47.992;7.848;2024-03-06T13:02:44;20.00;35.40
2439;DHT22;14509;47.992;7.848;2024-03-06T13:04:46;19.80;34.80
2439;DHT22;14509;47.992;7.848;2024-03-06T13:06:48;19.60;35.10
2439;DHT22;14509;47.992;7.848;2024-03-06T13:08:50;19.40;35.70
2439;DHT22;14509;47.992;7.848;2024-03-06T13:10:53;19.10;36.10
2439;DHT22;14509;47.992;7.848;2024-03-06T13:12:56;18.80;37.00